Time;durP1;ratioP1;P1;durP2;ratioP2;P2;SDS_P1;SDS_P2;PMS_P1;PMS_P2;Temp;Humidity;BMP_temperature;BMP_pressure;BME280_temperature;BME280_humidity;BME280_pressure;Samples;Min_cycle;Max_cycle;Signal;HPM_P1;HPM_P2
2021/08/15 00:01:25;;;;;;;8.38;4.05;;;;;;;18.28;72.30;101735.13;4809940;29;20251;-91
2021/08/15 00:03:59;;;;;;;9.48;4.32;;;;;;;18.15;72.45;101733.31;4809895;29;20881;-91
2021/08/15 00:06:28;;;;;;;9.43;4.55;;;;;;;18.18;72.41;101732.28;4780757;29;20047;-92
2021/08/15 00:09:02;;;;;;;6.10;4.30;;;;;;;18.09;72.74;101741.75;4803989;29;20044;-92
2021/08/15 00:11:48;;;;;;;8.15;4.70;;;;;;;17.95;73.16;101718.66;4784004;30;20040;-93
2021/08/15 00:14:35;;;;;;;;;;;;;;;;;;;;;
2021/08/15 00:17:10;;;;;;;7.18;4.10;;;;;;;18.00;72.87;101708.50;4804537;29;20111;-92
2021/08/15 00:20:20;;;;;;;8.82;4.53;;;;;;;17.89;73.45;101706.56;4847728;29;20056;-95
2021/08/15 00:22:49;;;;;;;11.38;4.40;;;;;;;17.99;73.14;101705.91;4893773;29;20045;-93
2021/08/15 00:25:37;;;;;;;7.15;4.05;;;;;;;17.98;73.22;101698.88;4907815;29;20055;-93
2021/08/15 00:28:14;;;;;;;8.63;4.65;;;;;;;17.96;73.42;101696.31;4874634;29;20072;-92
2021/08/15 00:31:26;;;;;;;7.75;4.00;;;;;;;17.95;73.44;101696.41;4840456;29;20145;-92
2021/08/15 00:33:59;;;;;;;7.38;4.60;;;;;;;17.92;73.59;101703.69;4872092;23;20101;-83
2021/08/15 00:36:30;;;;;;;9.57;4.38;;;;;;;17.95;73.53;101712.47;4954499;29;20056;-83
2021/08/15 00:38:56;;;;;;;9.05;4.60;;;;;;;17.94;73.58;101708.94;4955791;29;20059;-85
2021/08/15 00:41:23;;;;;;;7.30;4.53;;;;;;;17.88;73.67;101717.38;4972249;29;20023;-84
2021/08/15 00:43:50;;;;;;;8.20;4.50;;;;;;;17.86;73.88;101728.19;4973166;29;20038;-84
2021/08/15 00:46:17;;;;;;;7.03;4.95;;;;;;;17.92;73.87;101724.22;4971787;29;20099;-84
2021/08/15 00:48:44;;;;;;;11.40;5.40;;;;;;;17.81;74.29;101715.16;4971819;29;20039;-84
2021/08/15 00:51:11;;;;;;;11.25;5.47;;;;;;;17.89;73.66;101709.25;4941343;29;20019;-84
2021/08/15 00:53:43;;;;;;;7.82;5.05;;;;;;;17.85;73.56;101712.25;4973281;29;20397;-83
2021/08/15 00:56:09;;;;;;;8.82;5.78;;;;;;;17.76;74.01;101711.91;4973245;29;20061;-83
2021/08/15 00:58:39;;;;;;;12.52;6.75;;;;;;;17.77;73.77;101708.31;4950641;29;20037;-87
2021/08/15 01:01:09;;;;;;;12.48;6.15;;;;;;;17.69;73.71;101705.31;4972732;29;20059;-84
2021/08/15 01:03:35;;;;;;;12.45;6.63;;;;;;;17.65;74.12;101706.50;4972822;29;20212;-86
2021/08/15 01:06:03;;;;;;;8.23;5.60;;;;;;;17.49;74.61;101699.53;4972127;29;20038;-84
2021/08/15 01:08:35;;;;;;;11.73;5.53;;;;;;;17.47;74.47;101695.22;4971329;29;20114;-84
2021/08/15 01:11:01;;;;;;;11.25;5.97;;;;;;;17.52;74.13;101688.63;4975667;29;20028;-83
2021/08/15 01:13:31;;;;;;;10.07;5.82;;;;;;;17.54;74.14;101681.34;4958201;29;20094;-84
2021/08/15 01:15:56;;;;;;;7.25;5.15;;;;;;;17.51;74.27;101678.03;4974567;29;20031;-83
2021/08/15 01:18:30;;;;;;;10.88;5.43;;;;;;;17.49;74.36;101671.94;4973604;29;20408;-84
2021/08/15 01:21:02;;;;;;;8.23;5.35;;;;;;;17.47;74.51;101668.50;4957767;29;20389;-83
2021/08/15 01:23:30;;;;;;;10.60;5.50;;;;;;;17.43;74.54;101662.53;4976625;29;20031;-83
2021/08/15 01:26:01;;;;;;;9.25;4.93;;;;;;;17.39;74.50;101659.19;4978176;29;20198;-82
2021/08/15 01:28:27;;;;;;;8.90;5.30;;;;;;;17.35;75.34;101657.72;4974921;29;20066;-83
2021/08/15 01:30:53;;;;;;;11.23;5.25;;;;;;;17.35;75.30;101656.84;4974354;29;20031;-83
2021/08/15 01:33:32;;;;;;;11.80;5.30;;;;;;;17.34;75.53;101649.81;4977189;29;20030;-83
2021/08/15 01:36:02;;;;;;;8.90;4.80;;;;;;;17.36;75.51;101650.53;4971838;29;20059;-82
2021/08/15 01:38:29;;;;;;;5.53;4.15;;;;;;;17.39;75.25;101655.66;4965373;29;20063;-82
2021/08/15 01:40:54;;;;;;;8.57;4.40;;;;;;;17.38;75.58;101659.31;4965259;29;20086;-83
2021/08/15 01:43:23;;;;;;;9.02;5.22;;;;;;;17.42;75.50;101659.00;4946666;29;20023;-82
2021/08/15 01:45:50;;;;;;;10.43;5.57;;;;;;;17.43;75.62;101657.19;4930239;29;20382;-83
2021/08/15 01:48:16;;;;;;;11.40;5.15;;;;;;;17.52;75.21;101653.88;4946371;29;20053;-84
2021/08/15 01:50:41;;;;;;;10.68;5.43;;;;;;;17.53;75.19;101657.38;4963792;29;20089;-84
2021/08/15 01:53:12;;;;;;;11.18;5.30;;;;;;;17.55;75.02;101652.78;4946824;29;20095;-83
2021/08/15 01:55:39;;;;;;;11.13;5.13;;;;;;;17.55;75.13;101642.94;4930976;29;20049;-84
2021/08/15 01:58:04;;;;;;;6.80;4.05;;;;;;;17.60;75.08;101637.28;4946790;29;20031;-84
2021/08/15 02:00:31;;;;;;;8.23;4.55;;;;;;;17.63;75.08;101628.19;4930426;29;20058;-84
2021/08/15 02:02:57;;;;;;;10.20;4.50;;;;;;;17.64;75.22;101627.19;4946815;29;20027;-84
2021/08/15 02:05:22;;;;;;;9.15;4.25;;;;;;;17.60;75.15;101623.91;4962258;29;20055;-84
2021/08/15 02:07:55;;;;;;;10.48;4.70;;;;;;;17.60;75.17;101620.38;4947137;29;20035;-85
2021/08/15 02:10:24;;;;;;;9.18;5.00;;;;;;;17.70;74.99;101608.03;4946656;29;20031;-85
2021/08/15 02:12:50;;;;;;;10.70;4.68;;;;;;;17.58;75.32;101609.78;4946320;29;20031;-83
2021/08/15 02:15:16;;;;;;;9.10;4.72;;;;;;;17.74;74.95;101608.69;4914515;29;20086;-84
2021/08/15 02:17:42;;;;;;;8.45;5.35;;;;;;;17.68;74.94;101600.13;4929657;29;20031;-83
2021/08/15 02:20:10;;;;;;;10.55;4.72;;;;;;;17.63;75.35;101599.63;4945515;29;20039;-84
2021/08/15 02:22:39;;;;;;;7.78;4.60;;;;;;;17.61;75.45;101595.31;4944643;29;20019;-85
2021/08/15 02:25:09;;;;;;;10.13;4.82;;;;;;;17.64;75.10;101585.28;4945628;29;20450;-84
2021/08/15 02:27:40;;;;;;;8.13;4.60;;;;;;;17.68;75.13;101586.75;4913617;29;20027;-84
2021/08/15 02:30:08;;;;;;;8.52;4.70;;;;;;;17.61;75.53;101584.63;4946120;29;20078;-84
2021/08/15 02:32:36;;;;;;;11.35;5.15;;;;;;;17.65;75.20;101583.47;4962559;29;20116;-84
2021/08/15 02:35:03;;;;;;;7.70;4.93;;;;;;;17.65;75.36;101578.94;4941581;29;20104;-84
2021/08/15 02:37:31;;;;;;;8.63;5.00;;;;;;;17.67;75.39;101573.50;4911164;29;20040;-85
2021/08/15 02:39:59;;;;;;;8.20;4.55;;;;;;;17.67;75.33;101577.03;4928316;29;20027;-84
2021/08/15 02:42:28;;;;;;;8.65;4.78;;;;;;;17.62;75.80;101581.84;4914391;29;20087;-82
2021/08/15 02:44:53;;;;;;;9.15;4.25;;;;;;;17.67;75.57;101570.81;4945107;29;20049;-83
2021/08/15 02:47:19;;;;;;;12.25;4.90;;;;;;;17.75;75.40;101575.63;4947534;29;20030;-83
2021/08/15 02:49:49;;;;;;;13.20;4.82;;;;;;;17.76;75.27;101559.44;4947677;29;20064;-85
2021/08/15 02:52:17;;;;;;;7.55;4.43;;;;;;;17.70;75.46;101565.25;4946186;29;20042;-84
2021/08/15 02:54:42;;;;;;;9.88;5.05;;;;;;;17.68;75.60;101560.00;4943615;29;20030;-84
2021/08/15 02:57:09;;;;;;;13.02;4.72;;;;;;;17.76;75.22;101566.66;4944196;29;20031;-84
2021/08/15 02:59:39;;;;;;;11.10;4.80;;;;;;;17.68;75.70;101561.84;4926490;29;20037;-85
2021/08/15 03:02:15;;;;;;;8.70;4.70;;;;;;;17.61;76.06;101572.13;4942976;29;20035;-84
2021/08/15 03:04:42;;;;;;;8.60;4.95;;;;;;;17.63;75.96;101567.53;4942318;29;20039;-83
2021/08/15 03:07:08;;;;;;;7.70;4.60;;;;;;;17.62;76.20;101570.31;4943064;29;20402;-85
2021/08/15 03:09:34;;;;;;;7.55;4.63;;;;;;;17.59;76.07;101566.03;4929722;29;20038;-83
2021/08/15 03:11:59;;;;;;;11.38;5.25;;;;;;;17.43;76.77;101567.13;4946766;29;20063;-83
2021/08/15 03:14:26;;;;;;;9.23;4.97;;;;;;;17.54;76.46;101558.34;4925712;29;20506;-84
2021/08/15 03:16:51;;;;;;;8.95;5.32;;;;;;;17.52;76.42;101554.94;4925945;29;20035;-84
2021/08/15 03:19:17;;;;;;;10.70;5.40;;;;;;;17.54;76.34;101557.50;4912574;29;20051;-85
2021/08/15 03:21:45;;;;;;;11.20;5.40;;;;;;;17.58;76.42;101553.63;4948073;29;20028;-86
2021/08/15 03:24:19;;;;;;;10.32;5.00;;;;;;;17.58;76.13;101564.31;4925882;29;20039;-85
2021/08/15 03:26:46;;;;;;;12.25;5.55;;;;;;;17.52;76.43;101560.28;4942108;29;20042;-86
2021/08/15 03:29:16;;;;;;;12.10;5.10;;;;;;;17.44;77.00;101559.97;4942078;29;20031;-86
2021/08/15 03:31:42;;;;;;;14.30;5.28;;;;;;;17.58;76.15;101548.28;4924979;29;20493;-84
2021/08/15 03:34:08;;;;;;;10.35;4.95;;;;;;;17.58;76.37;101542.94;4941281;28;20118;-86
2021/08/15 03:36:33;;;;;;;10.95;4.80;;;;;;;17.62;76.23;101538.22;4927056;29;20040;-85
2021/08/15 03:39:00;;;;;;;9.48;4.78;;;;;;;17.63;75.90;101538.13;4941635;29;20043;-83
2021/08/15 03:41:26;;;;;;;13.15;5.47;;;;;;;17.54;76.87;101541.44;4940693;29;20035;-83
2021/08/15 03:43:51;;;;;;;8.10;4.78;;;;;;;17.60;76.39;101545.50;4941859;29;20027;-83
2021/08/15 03:46:16;;;;;;;11.68;6.07;;;;;;;17.53;76.66;101543.25;4924820;29;20523;-86
2021/08/15 03:48:42;;;;;;;13.02;5.03;;;;;;;17.58;76.78;101542.06;4941027;29;20501;-83
2021/08/15 03:51:08;;;;;;;8.35;4.68;;;;;;;17.56;76.59;101544.84;4941706;29;20031;-83
2021/08/15 03:53:33;;;;;;;11.25;5.15;;;;;;;17.66;76.54;101545.06;4941719;29;20031;-85
2021/08/15 03:55:59;;;;;;;9.02;4.82;;;;;;;17.66;76.47;101545.91;4924010;29;20083;-83
2021/08/15 03:58:24;;;;;;;12.13;5.20;;;;;;;17.70;76.51;101537.66;4941706;29;20031;-84
2021/08/15 04:00:49;;;;;;;10.13;4.95;;;;;;;17.76;76.28;101530.03;4942011;29;20023;-83
2021/08/15 04:03:16;;;;;;;11.13;4.70;;;;;;;17.68;76.87;101525.25;4924618;29;20039;-85
2021/08/15 04:05:42;;;;;;;11.55;5.38;;;;;;;17.68;76.60;101525.25;4941714;29;20039;-84
2021/08/15 04:08:07;;;;;;;10.48;5.45;;;;;;;17.70;76.50;101518.94;4924828;29;20071;-84
2021/08/15 04:10:34;;;;;;;11.48;5.53;;;;;;;17.74;76.47;101529.31;4924661;29;20087;-83
2021/08/15 04:13:01;;;;;;;11.38;4.90;;;;;;;17.74;76.50;101528.44;4928244;29;20031;-82
2021/08/15 04:15:27;;;;;;;11.57;5.57;;;;;;;17.66;76.96;101529.00;4927555;29;20406;-83
2021/08/15 04:17:52;;;;;;;9.02;4.93;;;;;;;17.63;76.96;101524.75;4912445;29;20078;-84
2021/08/15 04:20:18;;;;;;;13.38;5.43;;;;;;;17.68;77.06;101519.06;4928008;29;20521;-84
2021/08/15 04:22:44;;;;;;;11.93;5.15;;;;;;;17.72;76.57;101515.19;4945453;29;20062;-84
2021/08/15 04:25:09;;;;;;;10.30;6.18;;;;;;;17.65;76.99;101506.75;4944919;29;20039;-81
2021/08/15 04:27:35;;;;;;;11.65;5.70;;;;;;;17.67;76.70;101510.19;4946033;29;20024;-82
2021/08/15 04:30:03;;;;;;;11.90;5.38;;;;;;;17.62;76.96;101506.97;4947980;29;20039;-82
2021/08/15 04:32:29;;;;;;;11.48;5.57;;;;;;;17.64;76.95;101510.41;4938374;29;20044;-82
2021/08/15 04:34:55;;;;;;;10.70;5.95;;;;;;;17.64;77.07;101510.41;4933251;23;20059;-82
2021/08/15 04:37:21;;;;;;;13.15;5.65;;;;;;;17.70;76.85;101518.94;4921815;29;20088;-82
2021/08/15 04:39:47;;;;;;;11.95;5.35;;;;;;;17.65;76.96;101519.28;4921909;29;20036;-83
2021/08/15 04:42:12;;;;;;;14.88;5.68;;;;;;;17.63;77.27;101514.03;4920109;29;20436;-83
2021/08/15 04:44:37;;;;;;;11.35;5.32;;;;;;;17.70;76.93;101510.94;4921713;29;20083;-83
2021/08/15 04:47:04;;;;;;;11.38;5.80;;;;;;;17.74;76.75;101507.91;4926152;29;20111;-83
2021/08/15 04:49:30;;;;;;;11.00;5.40;;;;;;;17.70;77.01;101514.44;4940949;29;20504;-84
2021/08/15 04:51:57;;;;;;;9.95;5.50;;;;;;;17.72;77.00;101519.66;4926016;29;20036;-84
2021/08/15 04:54:26;;;;;;;15.15;6.10;;;;;;;17.72;77.00;101503.63;4924630;29;20033;-84
2021/08/15 04:56:52;;;;;;;13.07;5.93;;;;;;;17.71;76.93;101500.13;4925745;29;20036;-85
2021/08/15 04:59:17;;;;;;;10.85;5.68;;;;;;;17.76;76.88;101502.44;4924580;29;20092;-84
2021/08/15 05:01:43;;;;;;;11.45;6.18;;;;;;;17.72;76.94;101504.50;4939992;29;20095;-84
2021/08/15 05:04:09;;;;;;;16.08;6.88;;;;;;;17.67;77.38;101503.97;4939740;29;20064;-85
2021/08/15 05:06:35;;;;;;;11.48;6.45;;;;;;;17.70;77.08;101498.38;4925210;29;20060;-86
2021/08/15 05:09:01;;;;;;;14.30;6.93;;;;;;;17.56;78.00;101505.59;4925248;29;20028;-84
2021/08/15 05:11:29;;;;;;;17.42;6.88;;;;;;;17.69;77.39;101512.72;4924101;29;20114;-85
2021/08/15 05:13:54;;;;;;;12.35;6.97;;;;;;;17.62;77.65;101511.47;4923534;29;20119;-84
2021/08/15 05:16:20;;;;;;;15.07;6.43;;;;;;;17.67;77.80;101509.31;4925333;29;20497;-84
2021/08/15 05:18:45;;;;;;;9.93;6.30;;;;;;;17.80;77.21;101495.91;4925106;29;20060;-83
2021/08/15 05:21:11;;;;;;;11.90;5.97;;;;;;;17.83;77.29;101506.38;4925761;29;20115;-83
2021/08/15 05:23:37;;;;;;;12.32;6.57;;;;;;;17.79;77.73;101500.38;4925112;29;20020;-84
2021/08/15 05:26:06;;;;;;;11.85;6.05;;;;;;;17.86;76.98;101500.78;4924727;29;20036;-83
2021/08/15 05:28:32;;;;;;;13.15;6.03;;;;;;;17.93;76.98;101498.53;4925512;29;20499;-83
2021/08/15 05:30:57;;;;;;;11.85;5.80;;;;;;;17.93;77.29;101487.84;4939863;29;20062;-82
2021/08/15 05:33:22;;;;;;;12.32;5.85;;;;;;;17.91;77.35;101495.97;4923512;29;20058;-82
2021/08/15 05:35:48;;;;;;;14.60;5.72;;;;;;;18.05;76.76;101494.06;4922607;29;20062;-83
2021/08/15 05:38:14;;;;;;;16.20;5.90;;;;;;;18.16;76.75;101499.53;4907830;29;20476;-83
2021/08/15 05:40:43;;;;;;;10.50;5.53;;;;;;;18.17;76.39;101492.31;4938850;29;20051;-82
2021/08/15 05:43:09;;;;;;;13.07;5.50;;;;;;;18.30;76.18;101493.13;4923092;29;20082;-83
2021/08/15 05:45:37;;;;;;;14.45;5.80;;;;;;;18.11;76.78;101495.44;4938789;29;20040;-83
2021/08/15 05:48:05;;;;;;;12.88;5.90;;;;;;;18.30;76.04;101490.44;4939224;29;20036;-83
2021/08/15 05:50:32;;;;;;;12.25;5.70;;;;;;;18.27;75.95;101481.78;4939188;29;20047;-84
2021/08/15 05:52:58;;;;;;;18.45;6.55;;;;;;;18.27;75.91;101490.69;4923216;29;20032;-83
2021/08/15 05:55:23;;;;;;;13.07;5.65;;;;;;;18.21;76.50;101495.63;4939033;29;20036;-84
2021/08/15 05:57:51;;;;;;;14.88;5.93;;;;;;;18.41;75.81;101494.13;4924483;29;20044;-84
2021/08/15 06:00:18;;;;;;;10.23;5.68;;;;;;;18.44;75.73;101493.88;4939032;29;20028;-83
2021/08/15 06:02:45;;;;;;;11.55;5.97;;;;;;;18.43;75.91;101501.06;4928110;29;20024;-82
2021/08/15 06:05:11;;;;;;;13.20;6.40;;;;;;;18.53;75.25;101506.56;4933480;29;20033;-84
2021/08/15 06:07:39;;;;;;;14.23;5.65;;;;;;;18.61;75.51;101499.75;4931032;29;20032;-83
2021/08/15 06:10:05;;;;;;;12.68;6.03;;;;;;;18.82;74.68;101501.75;4927368;29;20029;-82
2021/08/15 06:12:33;;;;;;;13.20;5.85;;;;;;;18.72;75.03;101494.44;4926098;29;20040;-81
2021/08/15 06:15:00;;;;;;;12.93;5.82;;;;;;;18.62;75.23;101490.78;4924397;29;20163;-82
2021/08/15 06:17:29;;;;;;;16.77;5.90;;;;;;;18.80;74.81;101481.31;4938766;29;20028;-82
2021/08/15 06:19:54;;;;;;;10.68;5.53;;;;;;;18.87;74.71;101489.72;4924275;29;20036;-82
2021/08/15 06:22:22;;;;;;;12.07;5.45;;;;;;;19.04;73.94;101492.88;4938796;29;20044;-82
2021/08/15 06:24:47;;;;;;;12.40;5.68;;;;;;;19.05;74.03;101489.22;4924422;29;20040;-82
2021/08/15 06:27:14;;;;;;;12.02;5.53;;;;;;;19.22;73.31;101481.72;4923223;29;20106;-81
2021/08/15 06:29:41;;;;;;;12.43;5.68;;;;;;;19.39;73.16;101475.81;4924116;29;20107;-82
2021/08/15 06:32:06;;;;;;;13.65;6.93;;;;;;;19.24;73.13;101472.56;4938962;29;20036;-81
2021/08/15 06:34:33;;;;;;;14.45;5.82;;;;;;;19.48;72.33;101474.25;4907721;29;20052;-82
2021/08/15 06:37:00;;;;;;;16.40;5.50;;;;;;;19.40;73.19;101474.88;4909251;29;20048;-81
2021/08/15 06:39:28;;;;;;;13.00;5.47;;;;;;;19.26;73.48;101473.31;4946703;29;20168;-81
2021/08/15 06:41:55;;;;;;;13.90;5.88;;;;;;;19.21;73.74;101463.91;4932141;29;20042;-81
2021/08/15 06:44:21;;;;;;;13.57;5.90;;;;;;;19.27;73.79;101469.63;4931008;29;20040;-82
2021/08/15 06:46:49;;;;;;;11.35;5.40;;;;;;;19.34;73.55;101474.50;4923024;29;20080;-82
2021/08/15 06:49:15;;;;;;;16.58;6.47;;;;;;;19.36;73.89;101473.41;4909724;29;20048;-83
2021/08/15 06:51:44;;;;;;;16.60;6.63;;;;;;;19.45;73.94;101479.84;4905459;29;20484;-83
2021/08/15 06:54:15;;;;;;;16.02;6.10;;;;;;;19.52;73.79;101470.31;4904030;29;20047;-81
2021/08/15 06:56:41;;;;;;;9.30;5.63;;;;;;;19.63;73.17;101465.91;4907272;29;20032;-82
2021/08/15 06:59:09;;;;;;;13.30;5.60;;;;;;;19.70;73.30;101468.94;4891041;29;20059;-81
2021/08/15 07:01:36;;;;;;;13.18;5.60;;;;;;;19.61;73.93;101467.88;4888285;29;20048;-82
2021/08/15 07:04:02;;;;;;;13.43;5.78;;;;;;;19.99;72.60;101474.56;4906274;29;20024;-81
2021/08/15 07:06:28;;;;;;;9.95;5.28;;;;;;;19.96;72.56;101472.16;4907077;29;20040;-82
2021/08/15 07:08:53;;;;;;;11.70;5.18;;;;;;;20.20;72.12;101468.41;4908037;29;20029;-81
2021/08/15 07:11:20;;;;;;;11.13;6.05;;;;;;;20.03;72.29;101475.22;4905949;29;20104;-82
2021/08/15 07:13:47;;;;;;;11.93;5.85;;;;;;;20.22;72.00;101468.28;4906383;29;20037;-82
2021/08/15 07:16:14;;;;;;;17.42;5.43;;;;;;;20.56;71.03;101475.28;4906742;29;20120;-82
2021/08/15 07:18:42;;;;;;;12.32;5.70;;;;;;;20.64;70.17;101473.66;4940806;29;20539;-84
2021/08/15 07:21:09;;;;;;;12.60;5.55;;;;;;;20.79;69.90;101470.59;4908909;29;20036;-83
2021/08/15 07:23:36;;;;;;;17.83;6.35;;;;;;;20.65;70.46;101466.44;4922954;29;20076;-85
2021/08/15 07:26:03;;;;;;;15.73;5.53;;;;;;;20.67;70.08;101469.84;4909551;29;20047;-82
2021/08/15 07:28:29;;;;;;;16.85;5.65;;;;;;;20.93;69.38;101460.53;4924861;29;20036;-82
2021/08/15 07:30:58;;;;;;;12.95;5.50;;;;;;;21.19;68.56;101466.31;4925752;29;20043;-81
2021/08/15 07:33:24;;;;;;;12.57;5.78;;;;;;;21.34;68.37;101465.94;4925643;29;20029;-83
2021/08/15 07:35:54;;;;;;;14.30;5.90;;;;;;;21.34;68.14;101466.75;4905348;29;20115;-83
2021/08/15 07:38:21;;;;;;;15.00;6.25;;;;;;;21.26;67.99;101466.59;4924418;29;20511;-83
2021/08/15 07:40:50;;;;;;;11.07;5.07;;;;;;;21.50;68.13;101465.38;4910505;29;20024;-84
2021/08/15 07:43:17;;;;;;;15.85;6.22;;;;;;;21.47;67.41;101463.81;4910373;29;20040;-82
2021/08/15 07:45:49;;;;;;;14.68;5.80;;;;;;;21.80;66.15;101457.38;4909240;29;20063;-82
2021/08/15 07:48:17;;;;;;;14.13;5.90;;;;;;;21.67;66.77;101458.47;4924239;29;20134;-86
2021/08/15 07:50:52;;;;;;;14.52;5.55;;;;;;;22.06;64.67;101460.34;4924692;29;20072;-84
2021/08/15 07:53:25;;;;;;;12.00;5.75;;;;;;;22.28;63.28;101471.81;4939927;29;20055;-83
2021/08/15 07:55:54;;;;;;;11.30;5.50;;;;;;;22.07;63.73;101462.06;4924586;29;20071;-82
2021/08/15 07:58:20;;;;;;;11.38;5.25;;;;;;;22.15;63.80;101466.75;4908908;29;20055;-83
2021/08/15 08:00:46;;;;;;;11.52;5.80;;;;;;;22.53;62.51;101467.66;4924459;29;20096;-83
2021/08/15 08:03:13;;;;;;;14.43;5.10;;;;;;;22.70;61.87;101464.38;4924217;29;20466;-82
2021/08/15 08:05:40;;;;;;;14.50;5.85;;;;;;;22.76;62.04;101470.06;4925402;29;20064;-82
2021/08/15 08:08:09;;;;;;;12.05;5.78;;;;;;;22.95;61.03;101453.94;4925356;29;20044;-82
2021/08/15 08:10:39;;;;;;;17.15;6.55;;;;;;;22.81;61.85;101460.66;4925754;29;20024;-81
2021/08/15 08:13:09;;;;;;;12.52;5.45;;;;;;;22.78;61.87;101454.56;4924308;29;20040;-84
2021/08/15 08:15:36;;;;;;;11.77;5.38;;;;;;;22.56;61.75;101449.50;4925648;29;20060;-82
2021/08/15 08:18:03;;;;;;;14.30;5.57;;;;;;;22.69;61.90;101450.06;4923877;29;20430;-84
2021/08/15 08:20:32;;;;;;;12.82;5.30;;;;;;;22.43;62.49;101456.06;4924298;29;20051;-82
2021/08/15 08:23:00;;;;;;;12.05;5.63;;;;;;;22.70;61.69;101459.84;4893194;29;20100;-84
2021/08/15 08:25:33;;;;;;;12.32;5.60;;;;;;;22.52;62.31;101454.31;4923837;29;20024;-83
2021/08/15 08:28:04;;;;;;;12.18;5.63;;;;;;;22.12;63.45;101458.94;4923891;29;20032;-83
2021/08/15 08:30:32;;;;;;;12.93;6.07;;;;;;;21.77;64.28;101445.06;4925317;29;20058;-82
2021/08/15 08:32:58;;;;;;;12.88;5.63;;;;;;;21.93;64.38;101447.19;4908375;29;20036;-83
2021/08/15 08:35:28;;;;;;;14.18;5.30;;;;;;;22.20;64.17;101450.97;4914347;23;20057;-85
2021/08/15 08:37:54;;;;;;;12.70;5.70;;;;;;;22.14;64.16;101451.56;4913764;29;20079;-83
2021/08/15 08:40:20;;;;;;;18.83;6.03;;;;;;;21.62;65.52;101450.81;4913019;29;20028;-82
2021/08/15 08:42:46;;;;;;;15.27;5.55;;;;;;;21.98;64.52;101444.06;4896126;29;20443;-86
2021/08/15 08:45:15;;;;;;;14.18;5.45;;;;;;;22.10;64.23;101436.69;4897886;29;20036;-85
2021/08/15 08:47:41;;;;;;;13.20;5.18;;;;;;;22.06;64.53;101432.59;4897617;29;20029;-84
2021/08/15 08:50:07;;;;;;;14.63;5.80;;;;;;;22.30;63.34;101436.66;4863003;29;20055;-84
2021/08/15 08:52:34;;;;;;;14.30;5.63;;;;;;;22.34;62.51;101428.13;4899911;29;20069;-84
2021/08/15 08:55:03;;;;;;;9.27;5.30;;;;;;;22.05;63.26;101434.41;4897334;29;20037;-82
2021/08/15 08:57:29;;;;;;;16.42;5.60;;;;;;;22.35;63.19;101427.16;4912759;29;20044;-82
2021/08/15 08:59:54;;;;;;;16.73;5.47;;;;;;;22.48;62.30;101425.97;4896722;29;20032;-80
2021/08/15 09:02:22;;;;;;;16.08;6.25;;;;;;;22.56;63.11;101427.94;4913128;29;20033;-83
2021/08/15 09:04:47;;;;;;;13.15;6.10;;;;;;;22.70;62.22;101423.97;4900281;29;20460;-83
2021/08/15 09:07:17;;;;;;;11.80;5.63;;;;;;;22.65;61.59;101416.31;4914488;29;20156;-81
2021/08/15 09:09:51;;;;;;;12.85;5.68;;;;;;;23.18;60.21;101424.72;4896054;29;20092;-85
2021/08/15 09:12:17;;;;;;;12.88;5.93;;;;;;;23.48;59.58;101421.88;4905600;29;20130;-77
2021/08/15 09:14:42;;;;;;;12.93;5.13;;;;;;;23.99;57.56;101424.00;4907286;29;20028;-79
2021/08/15 09:17:08;;;;;;;12.65;5.47;;;;;;;24.98;54.75;101418.41;4868709;29;20472;-77
2021/08/15 09:19:37;;;;;;;13.32;5.22;;;;;;;25.97;51.86;101416.91;4887540;29;20365;-78
2021/08/15 09:22:21;;;;;;;12.50;5.45;;;;;;;25.47;52.39;101418.69;4899011;29;20388;-73
2021/08/15 09:24:58;;;;;;;13.75;5.35;;;;;;;24.82;55.07;101412.91;4898654;29;20041;-74
2021/08/15 09:27:33;;;;;;;9.95;5.15;;;;;;;24.48;55.79;101401.06;4898708;29;20032;-74
2021/08/15 09:30:27;;;;;;;11.82;5.60;;;;;;;24.23;55.98;101403.63;4897929;29;20080;-73
2021/08/15 09:33:00;;;;;;;13.35;5.53;;;;;;;24.13;56.36;101395.59;4900933;29;20036;-74
2021/08/15 09:35:34;;;;;;;12.05;4.70;;;;;;;24.54;54.14;101396.88;4901018;29;20052;-73
2021/08/15 09:38:08;;;;;;;12.73;5.40;;;;;;;24.05;56.00;101392.81;4900930;29;20040;-72
2021/08/15 09:40:40;;;;;;;12.40;5.20;;;;;;;24.50;54.18;101399.91;4901248;29;20029;-73
2021/08/15 09:43:08;;;;;;;12.30;4.97;;;;;;;25.17;51.02;101396.63;4884068;29;20040;-73
2021/08/15 09:45:42;;;;;;;11.07;5.03;;;;;;;25.84;50.46;101392.19;4900999;29;20040;-73
2021/08/15 09:48:36;;;;;;;10.70;5.10;;;;;;;27.11;48.07;101396.09;4900770;29;20096;-73
2021/08/15 09:51:06;;;;;;;8.70;4.95;;;;;;;26.98;45.88;101407.50;4899198;29;20047;-72
2021/08/15 09:53:32;;;;;;;10.10;4.72;;;;;;;26.67;46.46;101405.63;4900683;29;20040;-72
2021/08/15 09:55:57;;;;;;;10.68;5.00;;;;;;;27.04;46.23;101400.56;4900471;29;20388;-72
2021/08/15 09:58:24;;;;;;;10.68;4.63;;;;;;;27.20;45.64;101396.91;4899672;29;20022;-75
2021/08/15 10:00:50;;;;;;;10.25;4.50;;;;;;;26.86;46.73;101398.91;4900889;29;20103;-72
2021/08/15 10:03:17;;;;;;;9.70;4.38;;;;;;;26.84;46.98;101391.97;4900510;29;20140;-72
2021/08/15 10:05:45;;;;;;;10.52;4.45;;;;;;;27.08;46.49;101387.50;4900509;29;20036;-71
2021/08/15 10:08:13;;;;;;;11.20;5.20;;;;;;;27.25;45.96;101396.38;4899117;29;20032;-72
2021/08/15 10:10:38;;;;;;;9.02;4.93;;;;;;;26.31;48.43;101378.94;4899900;29;20412;-72
2021/08/15 10:13:04;;;;;;;11.07;5.15;;;;;;;26.24;48.88;101386.88;4884439;29;20024;-75
2021/08/15 10:15:30;;;;;;;10.27;4.43;;;;;;;26.28;48.39;101387.41;4900690;29;20032;-72
2021/08/15 10:17:55;;;;;;;9.50;4.45;;;;;;;26.27;49.16;101389.25;4883999;29;20364;-73
2021/08/15 10:20:23;;;;;;;12.25;4.55;;;;;;;26.15;48.49;101382.50;4867931;29;20024;-72
2021/08/15 10:22:50;;;;;;;12.75;4.32;;;;;;;26.41;47.95;101378.72;4900507;29;20040;-73
2021/08/15 10:25:41;;;;;;;10.10;4.47;;;;;;;26.19;48.73;101376.56;4887467;29;20044;-84
2021/08/15 10:28:10;;;;;;;11.02;5.38;;;;;;;25.84;50.13;101376.78;4906092;29;20096;-80
2021/08/15 10:30:44;;;;;;;11.18;4.00;;;;;;;26.23;49.06;101369.75;4906968;29;20479;-82
2021/08/15 10:33:15;;;;;;;9.30;4.30;;;;;;;26.61;47.96;101368.31;4906512;29;20535;-84
2021/08/15 10:35:44;;;;;;;10.63;3.95;;;;;;;25.78;48.81;101365.78;4906647;29;20055;-81
2021/08/15 10:38:18;;;;;;;7.60;3.88;;;;;;;25.37;49.33;101352.03;4905731;29;20503;-82
2021/08/15 10:40:49;;;;;;;7.63;3.93;;;;;;;25.86;47.66;101369.31;4907782;29;20041;-82
2021/08/15 10:43:54;;;;;;;9.32;3.85;;;;;;;26.30;46.99;101350.09;4907130;29;20036;-83
2021/08/15 10:46:22;;;;;;;8.15;3.80;;;;;;;26.11;45.98;101349.47;4849670;29;20101;-82
2021/08/15 10:48:58;;;;;;;11.15;4.15;;;;;;;25.96;45.93;101355.63;4849827;29;20042;-82
2021/08/15 10:51:50;;;;;;;8.48;4.13;;;;;;;25.59;46.54;101352.38;4849737;29;20038;-82
2021/08/15 10:54:30;;;;;;;11.82;4.18;;;;;;;25.35;46.73;101345.94;4850083;29;20097;-85
2021/08/15 10:57:02;;;;;;;8.07;3.80;;;;;;;25.40;47.60;101356.28;4849617;29;20054;-83
2021/08/15 10:59:35;;;;;;;10.20;3.58;;;;;;;25.62;48.17;101340.41;4835220;29;20026;-84
2021/08/15 11:02:13;;;;;;;7.35;3.40;;;;;;;25.39;49.37;101338.31;4849840;29;20045;-82
2021/08/15 11:04:40;;;;;;;6.13;3.03;;;;;;;25.34;49.78;101338.81;4834061;29;20125;-83
2021/08/15 11:07:09;;;;;;;6.18;2.60;;;;;;;25.76;48.81;101338.88;4849433;29;20075;-83
2021/08/15 11:09:58;;;;;;;7.15;2.70;;;;;;;25.18;49.88;101326.13;4849648;29;20045;-82
2021/08/15 11:12:25;;;;;;;4.35;2.20;;;;;;;24.74;49.65;101327.19;4834414;29;20044;-81
2021/08/15 11:15:08;;;;;;;5.70;2.33;;;;;;;24.97;48.13;101324.75;4848913;29;20068;-83
2021/08/15 11:17:37;;;;;;;6.50;2.55;;;;;;;24.51;47.37;101325.06;4849289;29;20462;-82
2021/08/15 11:20:47;;;;;;;5.22;2.47;;;;;;;24.53;44.08;101323.03;4847930;29;20042;-82
2021/08/15 11:23:18;;;;;;;6.35;2.88;;;;;;;24.35;44.41;101331.25;4831007;29;20113;-81
2021/08/15 11:25:47;;;;;;;;;;;;;;;24.26;46.18;101317.69;4831012;29;20049;-81
2021/08/15 11:28:16;;;;;;;5.70;2.60;;;;;;;24.04;45.88;101319.03;4845740;29;19917;-82
2021/08/15 11:30:42;;;;;;;5.68;3.03;;;;;;;24.52;46.06;101308.69;4815350;29;20168;-82